createdAt,value
2022-09-12T00:00:28.317Z,958.37
2022-09-12T00:01:28.324Z,958.40
2022-09-12T00:02:28.311Z,958.46
2022-09-12T00:03:28.458Z,958.41
2022-09-12T00:04:28.261Z,958.40
2022-09-12T00:05:28.259Z,958.38
2022-09-12T00:06:28.236Z,958.40
2022-09-12T00:07:28.233Z,958.38
2022-09-12T00:08:28.211Z,958.38
2022-09-12T00:09:28.468Z,958.34
2022-09-12T00:10:28.176Z,958.36
2022-09-12T00:11:28.176Z,958.37
2022-09-12T00:12:28.170Z,958.40
2022-09-12T00:13:28.137Z,958.34
2022-09-12T00:14:28.126Z,958.33
2022-09-12T00:15:28.272Z,958.35
2022-09-12T00:16:28.122Z,958.29
2022-09-12T00:17:28.081Z,958.34
2022-09-12T00:18:28.075Z,958.31
2022-09-12T00:19:28.084Z,958.33
2022-09-12T00:20:28.058Z,958.31
2022-09-12T00:21:28.140Z,958.31
2022-09-12T00:22:28.024Z,958.30
2022-09-12T00:23:28.004Z,958.29
2022-09-12T00:24:28.008Z,958.34
2022-09-12T00:25:27.980Z,958.33
2022-09-12T00:26:27.956Z,958.33
2022-09-12T00:27:28.126Z,958.34
2022-09-12T00:28:27.933Z,958.35
2022-09-12T00:29:27.943Z,958.31
2022-09-12T00:30:27.903Z,958.30
2022-09-12T00:31:27.978Z,958.36
2022-09-12T00:32:27.876Z,958.30
2022-09-12T00:33:28.113Z,958.31
2022-09-12T00:34:27.853Z,958.31
2022-09-12T00:35:27.843Z,958.33
2022-09-12T00:36:27.819Z,958.32
2022-09-12T00:37:27.808Z,958.25
2022-09-12T00:38:27.803Z,958.28
2022-09-12T00:39:28.141Z,958.29
2022-09-12T00:40:27.776Z,958.25
2022-09-12T00:41:27.758Z,958.23
2022-09-12T00:42:27.738Z,958.24
2022-09-12T00:43:27.728Z,958.27
2022-09-12T00:44:27.709Z,958.23
2022-09-12T00:45:27.920Z,958.19
2022-09-12T00:46:27.690Z,958.22
2022-09-12T00:47:27.686Z,958.19
2022-09-12T00:48:27.663Z,958.21
2022-09-12T00:49:27.654Z,958.15
2022-09-12T00:50:27.625Z,958.08
2022-09-12T00:51:27.794Z,958.11
2022-09-12T00:52:27.603Z,958.09
2022-09-12T00:53:27.586Z,958.09
2022-09-12T00:54:27.584Z,958.10
2022-09-12T00:55:27.557Z,958.10
2022-09-12T00:56:27.558Z,958.10
2022-09-12T00:57:27.656Z,958.14
2022-09-12T00:58:27.504Z,958.16
2022-09-12T00:59:27.703Z,958.12
2022-09-12T01:00:27.485Z,958.13
2022-09-12T01:01:32.198Z,958.12
2022-09-12T01:02:28.640Z,958.11
2022-09-12T01:03:27.456Z,958.05
2022-09-12T01:04:27.456Z,958.08
2022-09-12T01:05:27.425Z,958.00
2022-09-12T01:06:27.473Z,957.95
2022-09-12T01:07:27.386Z,957.98
2022-09-12T01:08:27.530Z,957.99
2022-09-12T01:09:27.417Z,957.98
2022-09-12T01:10:27.360Z,957.95
2022-09-12T01:11:27.346Z,958.01
2022-09-12T01:12:27.319Z,958.03
2022-09-12T01:13:27.311Z,958.04
2022-09-12T01:14:27.452Z,958.02
2022-09-12T01:15:27.279Z,957.99
2022-09-12T01:16:27.304Z,957.94
2022-09-12T01:17:27.260Z,957.94
2022-09-12T01:18:27.231Z,957.96
2022-09-12T01:19:27.230Z,957.94
2022-09-12T01:20:27.548Z,957.96
2022-09-12T01:21:27.206Z,957.91
2022-09-12T01:22:27.179Z,957.96
2022-09-12T01:23:27.173Z,957.90
2022-09-12T01:24:27.277Z,957.96
2022-09-12T01:25:27.140Z,957.98
2022-09-12T01:26:27.254Z,957.91
2022-09-12T01:27:27.123Z,957.97
2022-09-12T01:28:27.103Z,957.97
2022-09-12T01:29:27.154Z,957.99
2022-09-12T01:30:27.066Z,957.99
2022-09-12T01:31:27.157Z,957.98
2022-09-12T01:32:27.245Z,957.98
2022-09-12T01:33:27.071Z,957.90
2022-09-12T01:34:27.031Z,957.89
2022-09-12T01:35:27.003Z,957.90
2022-09-12T01:36:26.991Z,957.91
2022-09-12T01:37:26.978Z,957.89
2022-09-12T01:38:27.289Z,957.85
2022-09-12T01:39:27.461Z,957.84
2022-09-12T01:40:26.987Z,957.77
2022-09-12T01:41:26.958Z,957.78
2022-09-12T01:42:26.947Z,957.81
2022-09-12T01:43:26.937Z,957.78
2022-09-12T01:44:27.124Z,957.80
2022-09-12T01:45:26.911Z,957.75
2022-09-12T01:46:26.852Z,957.78
2022-09-12T01:47:26.829Z,957.77
2022-09-12T01:48:26.826Z,957.76
2022-09-12T01:49:26.800Z,957.77
2022-09-12T01:50:26.934Z,957.73
2022-09-12T01:51:26.781Z,957.78
2022-09-12T01:52:26.771Z,957.75
2022-09-12T01:53:26.757Z,957.78
2022-09-12T01:54:26.743Z,957.82
2022-09-12T01:55:26.740Z,957.80
2022-09-12T01:56:26.963Z,957.79
2022-09-12T01:57:26.697Z,957.80
2022-09-12T01:58:26.667Z,957.78
2022-09-12T01:59:26.841Z,957.77
2022-09-12T02:00:26.649Z,957.70
2022-09-12T02:01:26.671Z,957.75
2022-09-12T02:02:26.953Z,957.71
2022-09-12T02:03:26.614Z,957.66
2022-09-12T02:04:27.713Z,957.72
2022-09-12T02:05:26.586Z,957.67
2022-09-12T02:06:26.578Z,957.69
2022-09-12T02:07:26.577Z,957.68
2022-09-12T02:08:26.714Z,957.66
2022-09-12T02:09:26.525Z,957.72
2022-09-12T02:10:31.753Z,957.71
2022-09-12T02:11:27.493Z,957.68
2022-09-12T02:12:26.498Z,957.70
2022-09-12T02:13:26.463Z,957.66
2022-09-12T02:14:26.625Z,957.64
2022-09-12T02:15:26.434Z,957.68
2022-09-12T02:16:26.449Z,957.67
2022-09-12T02:17:26.422Z,957.69
2022-09-12T02:18:26.401Z,957.70
2022-09-12T02:19:26.390Z,957.69
2022-09-12T02:20:46.806Z,957.68
2022-09-12T02:21:27.360Z,957.67
2022-09-12T02:22:26.357Z,957.67
2022-09-12T02:23:26.333Z,957.64
2022-09-12T02:24:26.331Z,957.71
2022-09-12T02:25:26.290Z,957.69
2022-09-12T02:26:26.608Z,957.67
2022-09-12T02:27:26.273Z,957.67
2022-09-12T02:28:26.257Z,957.62
2022-09-12T02:29:26.245Z,957.64
2022-09-12T02:30:26.250Z,957.62
2022-09-12T02:31:26.214Z,957.61
2022-09-12T02:32:26.372Z,957.66
2022-09-12T02:33:26.185Z,957.62
2022-09-12T02:34:26.177Z,957.63
2022-09-12T02:35:26.186Z,957.64
2022-09-12T02:36:26.139Z,957.68
2022-09-12T02:37:26.139Z,957.64
2022-09-12T02:38:26.229Z,957.64
2022-09-12T02:39:26.132Z,957.62
2022-09-12T02:40:26.133Z,957.63
2022-09-12T02:41:26.101Z,957.63
2022-09-12T02:42:26.079Z,957.65
2022-09-12T02:43:26.057Z,957.62
2022-09-12T02:44:26.229Z,957.64
2022-09-12T02:45:26.108Z,957.63
2022-09-12T02:46:26.096Z,957.58
2022-09-12T02:47:26.015Z,957.61
2022-09-12T02:48:26.003Z,957.66
2022-09-12T02:49:25.995Z,957.61
2022-09-12T02:50:26.185Z,957.63
2022-09-12T02:51:26.004Z,957.66
2022-09-12T02:52:25.962Z,957.66
2022-09-12T02:53:25.974Z,957.60
2022-09-12T02:54:25.897Z,957.61
2022-09-12T02:55:25.873Z,957.57
2022-09-12T02:56:26.111Z,957.58
2022-09-12T02:57:25.860Z,957.58
2022-09-12T02:58:25.843Z,957.54
2022-09-12T02:59:25.826Z,957.55
2022-09-12T03:00:25.837Z,957.56
2022-09-12T03:01:25.965Z,957.59
2022-09-12T03:02:25.851Z,957.55
2022-09-12T03:03:25.802Z,957.55
2022-09-12T03:04:25.761Z,957.56
2022-09-12T03:05:25.778Z,957.54
2022-09-12T03:06:25.750Z,957.64
2022-09-12T03:07:25.930Z,957.58
2022-09-12T03:08:25.727Z,957.63
2022-09-12T03:09:25.688Z,957.61
2022-09-12T03:10:25.679Z,957.61
2022-09-12T03:11:25.658Z,957.57
2022-09-12T03:12:25.649Z,957.60
2022-09-12T03:13:25.936Z,957.56
2022-09-12T03:14:25.647Z,957.60
2022-09-12T03:15:25.668Z,957.59
2022-09-12T03:16:25.771Z,957.60
2022-09-12T03:17:25.594Z,957.60
2022-09-12T03:18:25.576Z,957.60
2022-09-12T03:19:25.637Z,957.59
2022-09-12T03:20:25.550Z,957.63
2022-09-12T03:21:25.520Z,957.57
2022-09-12T03:22:25.518Z,957.60
2022-09-12T03:23:25.490Z,957.57
2022-09-12T03:24:25.475Z,957.61
2022-09-12T03:25:25.598Z,957.62
2022-09-12T03:26:25.917Z,957.60
2022-09-12T03:27:25.448Z,957.61
2022-09-12T03:28:25.421Z,957.60
2022-09-12T03:29:25.426Z,957.58
2022-09-12T03:30:25.419Z,957.62
2022-09-12T03:31:25.520Z,957.62
2022-09-12T03:32:25.408Z,957.57
2022-09-12T03:33:25.358Z,957.60
2022-09-12T03:34:25.332Z,957.58
2022-09-12T03:35:25.335Z,957.60
2022-09-12T03:36:25.318Z,957.59
2022-09-12T03:37:25.377Z,957.62
2022-09-12T03:38:25.320Z,957.58
2022-09-12T03:39:25.279Z,957.64
2022-09-12T03:40:25.255Z,957.61
2022-09-12T03:41:25.239Z,957.66
2022-09-12T03:42:25.240Z,957.64
2022-09-12T03:43:25.431Z,957.61
2022-09-12T03:44:25.330Z,957.61
2022-09-12T03:45:25.263Z,957.62
2022-09-12T03:46:25.226Z,957.58
2022-09-12T03:47:25.226Z,957.61
2022-09-12T03:48:25.236Z,957.61
2022-09-12T03:49:25.275Z,957.62
2022-09-12T03:50:25.188Z,957.62
2022-09-12T03:51:25.124Z,957.63
2022-09-12T03:52:25.160Z,957.59
2022-09-12T03:53:25.078Z,957.60
2022-09-12T03:54:25.062Z,957.62
2022-09-12T03:55:26.157Z,957.65
2022-09-12T03:56:25.078Z,957.64
2022-09-12T03:57:25.047Z,957.65
2022-09-12T03:58:25.192Z,957.67
2022-09-12T03:59:25.004Z,957.63
2022-09-12T04:00:24.993Z,957.68
2022-09-12T04:01:25.208Z,957.65
2022-09-12T04:02:24.998Z,957.62
2022-09-12T04:03:24.943Z,957.63
2022-09-12T04:04:24.992Z,957.63
2022-09-12T04:05:24.915Z,957.64
2022-09-12T04:06:24.903Z,957.64
2022-09-12T04:07:25.006Z,957.65
2022-09-12T04:08:24.899Z,957.64
2022-09-12T04:09:24.847Z,957.65
2022-09-12T04:10:24.839Z,957.69
2022-09-12T04:11:24.830Z,957.70
2022-09-12T04:12:24.808Z,957.66
2022-09-12T04:13:24.949Z,957.64
2022-09-12T04:14:24.840Z,957.65
2022-09-12T04:15:24.781Z,957.67
2022-09-12T04:16:24.784Z,957.69
2022-09-12T04:17:24.766Z,957.71
2022-09-12T04:18:24.729Z,957.70
2022-09-12T04:19:24.813Z,957.68
2022-09-12T04:20:24.811Z,957.68
2022-09-12T04:21:24.718Z,957.66
2022-09-12T04:22:24.690Z,957.72
2022-09-12T04:23:24.656Z,957.64
2022-09-12T04:24:24.750Z,957.63
2022-09-12T04:25:24.828Z,957.61
2022-09-12T04:26:24.643Z,957.62
2022-09-12T04:27:24.648Z,957.64
2022-09-12T04:28:24.608Z,957.68
2022-09-12T04:29:24.582Z,957.70
2022-09-12T04:30:24.628Z,957.68
2022-09-12T04:31:24.703Z,957.70
2022-09-12T04:32:24.690Z,957.74
2022-09-12T04:33:24.506Z,957.73
2022-09-12T04:34:24.501Z,957.66
2022-09-12T04:35:24.492Z,957.66
2022-09-12T04:36:24.481Z,957.65
2022-09-12T04:37:24.544Z,957.65
2022-09-12T04:38:24.478Z,957.65
2022-09-12T04:39:24.444Z,957.66
2022-09-12T04:40:24.428Z,957.67
2022-09-12T04:41:24.411Z,957.68
2022-09-12T04:42:24.399Z,957.70
2022-09-12T04:43:24.527Z,957.71
2022-09-12T04:44:24.409Z,957.72
2022-09-12T04:45:24.351Z,957.70
2022-09-12T04:46:24.340Z,957.71
2022-09-12T04:47:24.323Z,957.69
2022-09-12T04:48:24.313Z,957.71
2022-09-12T04:49:24.452Z,957.72
2022-09-12T04:50:24.319Z,957.74
2022-09-12T04:51:24.273Z,957.73
2022-09-12T04:52:24.299Z,957.77
2022-09-12T04:53:24.276Z,957.76
2022-09-12T04:54:24.248Z,957.73
2022-09-12T04:55:24.299Z,957.73
2022-09-12T04:56:24.255Z,957.73
2022-09-12T04:57:24.233Z,957.74
2022-09-12T04:58:24.229Z,957.75
2022-09-12T04:59:24.148Z,957.77
2022-09-12T05:00:24.184Z,957.76
2022-09-12T05:01:24.397Z,957.72
2022-09-12T05:02:24.473Z,957.70
2022-09-12T05:03:24.102Z,957.72
2022-09-12T05:04:24.083Z,957.69
2022-09-12T05:05:24.071Z,957.67
2022-09-12T05:06:24.067Z,957.67
2022-09-12T05:07:24.133Z,957.68
2022-09-12T05:08:24.063Z,957.68
2022-09-12T05:09:24.013Z,957.70
2022-09-12T05:10:24.007Z,957.69
2022-09-12T05:11:26.576Z,957.72
2022-09-12T05:12:23.977Z,957.66
2022-09-12T05:13:24.108Z,957.68
2022-09-12T05:14:23.991Z,957.68
2022-09-12T05:15:23.933Z,957.61
2022-09-12T05:16:23.962Z,957.62
2022-09-12T05:17:23.891Z,957.59
2022-09-12T05:18:23.884Z,957.58
2022-09-12T05:19:24.051Z,957.62
2022-09-12T05:20:23.901Z,957.65
2022-09-12T05:21:23.884Z,957.66
2022-09-12T05:22:23.839Z,957.67
2022-09-12T05:23:23.832Z,957.65
2022-09-12T05:24:23.817Z,957.66
2022-09-12T05:25:24.017Z,957.69
2022-09-12T05:26:23.807Z,957.64
2022-09-12T05:27:23.766Z,957.70
2022-09-12T05:28:23.748Z,957.69
2022-09-12T05:29:23.745Z,957.71
2022-09-12T05:30:23.765Z,957.68
2022-09-12T05:31:23.810Z,957.69
2022-09-12T05:32:23.756Z,957.74
2022-09-12T05:33:25.175Z,957.73
2022-09-12T05:34:23.659Z,957.75
2022-09-12T05:35:23.654Z,957.81
2022-09-12T05:36:23.637Z,957.81
2022-09-12T05:37:23.789Z,957.80
2022-09-12T05:38:23.814Z,957.81
2022-09-12T05:39:23.597Z,957.85
2022-09-12T05:40:23.583Z,957.86
2022-09-12T05:41:25.145Z,957.88
2022-09-12T05:42:23.562Z,957.86
2022-09-12T05:43:23.702Z,957.83
2022-09-12T05:44:23.567Z,957.85
2022-09-12T05:45:23.567Z,957.90
2022-09-12T05:46:23.515Z,957.85
2022-09-12T05:47:23.482Z,957.84
2022-09-12T05:48:23.476Z,957.87
2022-09-12T05:49:23.638Z,957.88
2022-09-12T05:50:23.482Z,957.88
2022-09-12T05:51:23.447Z,957.93
2022-09-12T05:52:23.418Z,957.97
2022-09-12T05:53:23.393Z,957.91
2022-09-12T05:54:23.410Z,957.96
2022-09-12T05:55:23.460Z,957.93
2022-09-12T05:56:23.406Z,957.91
2022-09-12T05:57:23.350Z,957.95
2022-09-12T05:58:23.336Z,957.98
2022-09-12T05:59:23.320Z,957.99
2022-09-12T06:00:23.333Z,957.97
2022-09-12T06:01:23.436Z,958.01
2022-09-12T06:02:23.354Z,958.00
2022-09-12T06:03:23.264Z,957.99
2022-09-12T06:04:23.264Z,957.99
2022-09-12T06:05:23.292Z,957.98
2022-09-12T06:06:23.569Z,957.95
2022-09-12T06:07:23.705Z,958.01
2022-09-12T06:08:23.235Z,957.97
2022-09-12T06:09:23.202Z,957.95
2022-09-12T06:10:23.170Z,957.95
2022-09-12T06:11:23.152Z,957.98
2022-09-12T06:12:23.158Z,957.98
2022-09-12T06:13:23.215Z,958.01
2022-09-12T06:14:23.283Z,958.00
2022-09-12T06:15:23.102Z,958.03
2022-09-12T06:16:23.128Z,958.08
2022-09-12T06:17:23.071Z,958.01
2022-09-12T06:18:23.052Z,958.03
2022-09-12T06:19:23.129Z,958.03
2022-09-12T06:20:23.073Z,957.98
2022-09-12T06:21:23.011Z,958.01
2022-09-12T06:22:23.006Z,958.01
2022-09-12T06:23:22.984Z,958.05
2022-09-12T06:24:22.965Z,958.04
2022-09-12T06:25:23.114Z,958.05
2022-09-12T06:26:22.986Z,958.06
2022-09-12T06:27:22.932Z,958.07
2022-09-12T06:28:22.911Z,958.06
2022-09-12T06:29:22.904Z,957.99
2022-09-12T06:30:25.486Z,958.08
2022-09-12T06:31:23.248Z,958.07
2022-09-12T06:32:22.890Z,958.01
2022-09-12T06:33:22.845Z,958.01
2022-09-12T06:34:22.831Z,958.01
2022-09-12T06:35:22.818Z,957.97
2022-09-12T06:36:22.787Z,957.99
2022-09-12T06:37:22.886Z,958.02
2022-09-12T06:38:22.818Z,957.99
2022-09-12T06:39:22.759Z,957.99
2022-09-12T06:40:22.780Z,958.00
2022-09-12T06:41:22.727Z,957.96
2022-09-12T06:42:22.710Z,958.00
2022-09-12T06:43:22.811Z,958.00
2022-09-12T06:44:22.775Z,957.98
2022-09-12T06:45:22.672Z,957.96
2022-09-12T06:46:22.746Z,957.98
2022-09-12T06:47:22.675Z,957.97
2022-09-12T06:48:22.653Z,957.98
2022-09-12T06:49:22.846Z,958.00
2022-09-12T06:50:22.650Z,958.05
2022-09-12T06:51:22.586Z,958.01
2022-09-12T06:52:22.576Z,958.04
2022-09-12T06:53:22.569Z,958.00
2022-09-12T06:54:22.552Z,958.03
2022-09-12T06:55:27.111Z,958.10
2022-09-12T06:56:23.561Z,958.09
2022-09-12T06:57:22.510Z,958.09
2022-09-12T06:58:22.485Z,958.08
2022-09-12T06:59:22.485Z,958.07
2022-09-12T07:00:22.466Z,958.10
2022-09-12T07:01:22.601Z,958.08
2022-09-12T07:02:22.610Z,958.10
2022-09-12T07:03:22.452Z,958.10
2022-09-12T07:04:22.424Z,958.10
2022-09-12T07:05:22.404Z,958.13
2022-09-12T07:06:22.401Z,958.10
2022-09-12T07:07:22.372Z,958.09
2022-09-12T07:08:22.487Z,958.14
2022-09-12T07:09:22.360Z,958.15
2022-09-12T07:10:22.497Z,958.12
2022-09-12T07:11:22.337Z,958.15
2022-09-12T07:12:22.327Z,958.11
2022-09-12T07:13:22.320Z,958.14
2022-09-12T07:14:22.495Z,958.14
2022-09-12T07:15:22.257Z,958.11
2022-09-12T07:16:22.293Z,958.09
2022-09-12T07:17:22.245Z,958.11
2022-09-12T07:18:22.218Z,958.11
2022-09-12T07:19:22.207Z,958.10
2022-09-12T07:20:22.307Z,958.09
2022-09-12T07:21:22.178Z,958.06
2022-09-12T07:22:22.184Z,958.04
2022-09-12T07:23:22.153Z,958.03
2022-09-12T07:24:22.138Z,958.04
2022-09-12T07:25:22.124Z,958.01
2022-09-12T07:26:22.370Z,957.99
2022-09-12T07:27:22.085Z,958.05
2022-09-12T07:28:22.063Z,958.17
2022-09-12T07:29:38.138Z,958.00
2022-09-12T07:30:23.082Z,958.01
2022-09-12T07:31:22.058Z,958.00
2022-09-12T07:32:22.153Z,958.00
2022-09-12T07:33:22.014Z,957.96
2022-09-12T07:34:21.989Z,957.96
2022-09-12T07:35:21.980Z,957.96
2022-09-12T07:36:21.960Z,957.93
2022-09-12T07:37:21.948Z,957.90
2022-09-12T07:38:22.064Z,957.91
2022-09-12T07:39:21.924Z,957.94
2022-09-12T07:40:21.902Z,957.89
2022-09-12T07:41:21.903Z,957.94
2022-09-12T07:42:21.872Z,957.90
2022-09-12T07:43:21.896Z,957.88
2022-09-12T07:44:22.149Z,957.88
2022-09-12T07:45:21.837Z,957.88
2022-09-12T07:46:21.833Z,957.92
2022-09-12T07:47:21.823Z,957.92
2022-09-12T07:48:21.805Z,957.89
2022-09-12T07:49:21.952Z,957.90
2022-09-12T07:50:22.057Z,957.90
2022-09-12T07:51:21.843Z,957.87
2022-09-12T07:52:21.735Z,957.85
2022-09-12T07:53:21.715Z,957.86
2022-09-12T07:54:21.704Z,957.86
2022-09-12T07:55:21.695Z,957.84
2022-09-12T07:56:25.033Z,957.86
2022-09-12T07:57:22.664Z,957.83
2022-09-12T07:58:21.653Z,957.82
2022-09-12T07:59:48.398Z,957.83
2022-09-12T08:00:22.671Z,957.86
2022-09-12T08:01:21.644Z,957.82
2022-09-12T08:02:21.941Z,957.79
2022-09-12T08:03:21.580Z,957.85
2022-09-12T08:04:21.584Z,957.88
2022-09-12T08:05:21.555Z,957.87
2022-09-12T08:06:21.551Z,957.89
2022-09-12T08:07:21.532Z,957.92
2022-09-12T08:08:21.676Z,957.92
2022-09-12T08:09:21.499Z,957.89
2022-09-12T08:10:21.525Z,957.88
2022-09-12T08:11:21.492Z,957.89
2022-09-12T08:12:21.460Z,957.87
2022-09-12T08:13:21.438Z,957.87
2022-09-12T08:14:21.572Z,957.90
2022-09-12T08:15:21.448Z,957.90
2022-09-12T08:16:21.408Z,957.88
2022-09-12T08:17:21.401Z,957.90
2022-09-12T08:18:21.376Z,957.91
2022-09-12T08:19:21.368Z,957.91
2022-09-12T08:20:25.297Z,957.92
2022-09-12T08:21:22.623Z,957.92
2022-09-12T08:22:21.336Z,957.87
2022-09-12T08:23:21.343Z,957.85
2022-09-12T08:24:21.285Z,957.87
2022-09-12T08:25:21.277Z,957.86
2022-09-12T08:26:21.582Z,957.82
2022-09-12T08:27:21.300Z,957.83
2022-09-12T08:28:21.262Z,957.83
2022-09-12T08:29:21.216Z,957.81
2022-09-12T08:30:21.254Z,957.80
2022-09-12T08:31:21.196Z,957.83
2022-09-12T08:32:21.518Z,957.85
2022-09-12T08:33:21.175Z,957.84
2022-09-12T08:34:21.155Z,957.85
2022-09-12T08:35:21.147Z,957.85
2022-09-12T08:36:21.138Z,957.88
2022-09-12T08:37:21.463Z,957.86
2022-09-12T08:38:21.279Z,957.87
2022-09-12T08:39:21.095Z,957.88
2022-09-12T08:40:21.128Z,957.91
2022-09-12T08:41:21.073Z,957.93
2022-09-12T08:42:21.084Z,957.89
2022-09-12T08:43:21.050Z,957.93
2022-09-12T08:44:21.301Z,957.95
2022-09-12T08:45:21.011Z,958.00
2022-09-12T08:46:21.111Z,957.97
2022-09-12T08:47:20.998Z,958.02
2022-09-12T08:48:21.006Z,958.02
2022-09-12T08:49:21.054Z,958.03
2022-09-12T08:50:21.172Z,958.01
2022-09-12T08:51:21.002Z,957.97
2022-09-12T08:52:20.947Z,958.00
2022-09-12T08:53:20.958Z,957.98
2022-09-12T08:54:20.927Z,958.01
2022-09-12T08:55:20.898Z,957.97
2022-09-12T08:56:20.985Z,957.97
2022-09-12T08:57:21.782Z,957.99
2022-09-12T08:58:20.861Z,957.98
2022-09-12T08:59:20.826Z,957.94
2022-09-12T09:00:20.800Z,957.92
2022-09-12T09:01:20.893Z,957.93
2022-09-12T09:02:20.967Z,957.93
2022-09-12T09:03:20.779Z,957.92
2022-09-12T09:04:20.779Z,957.92
2022-09-12T09:05:20.790Z,957.92
2022-09-12T09:06:20.786Z,957.91
2022-09-12T09:07:20.681Z,957.93
2022-09-12T09:08:20.955Z,957.87
2022-09-12T09:09:20.655Z,957.89
2022-09-12T09:10:20.646Z,957.89
2022-09-12T09:11:20.652Z,957.89
2022-09-12T09:12:20.624Z,957.86
2022-09-12T09:13:20.593Z,957.87
2022-09-12T09:14:20.896Z,957.85
2022-09-12T09:15:20.578Z,957.88
2022-09-12T09:16:20.656Z,957.89
2022-09-12T09:17:20.550Z,957.89
2022-09-12T09:18:20.527Z,957.87
2022-09-12T09:19:20.530Z,957.87
2022-09-12T09:20:21.143Z,957.83
2022-09-12T09:21:20.503Z,957.85
2022-09-12T09:22:20.482Z,957.85
2022-09-12T09:23:20.543Z,957.85
2022-09-12T09:24:20.457Z,957.86
2022-09-12T09:25:22.921Z,957.80
2022-09-12T09:26:20.790Z,957.80
2022-09-12T09:27:39.218Z,957.75
2022-09-12T09:28:21.385Z,957.81
2022-09-12T09:29:20.392Z,957.73
2022-09-12T09:30:20.358Z,957.78
2022-09-12T09:31:20.424Z,957.82
2022-09-12T09:32:20.506Z,957.78
2022-09-12T09:33:20.329Z,957.80
2022-09-12T09:34:20.307Z,957.82
2022-09-12T09:35:20.291Z,957.80
2022-09-12T09:36:20.285Z,957.80
2022-09-12T09:37:20.286Z,957.77
2022-09-12T09:38:20.501Z,957.76
2022-09-12T09:39:20.246Z,957.73
2022-09-12T09:40:20.257Z,957.76
2022-09-12T09:41:20.226Z,957.75
2022-09-12T09:42:20.193Z,957.75
2022-09-12T09:43:20.199Z,957.74
2022-09-12T09:44:20.354Z,957.74
2022-09-12T09:45:20.152Z,957.78
2022-09-12T09:46:20.212Z,957.75
2022-09-12T09:47:20.132Z,957.78
2022-09-12T09:48:20.119Z,957.79
2022-09-12T09:49:20.101Z,957.74
2022-09-12T09:50:20.476Z,957.76
2022-09-12T09:51:20.068Z,957.73
2022-09-12T09:52:20.073Z,957.75
2022-09-12T09:53:20.047Z,957.79
2022-09-12T09:54:20.022Z,957.78
2022-09-12T09:55:20.031Z,957.78
2022-09-12T09:56:23.175Z,957.75
2022-09-12T09:57:19.987Z,957.74
2022-09-12T09:58:20.004Z,957.70
2022-09-12T09:59:19.999Z,957.69
2022-09-12T10:00:19.992Z,957.70
2022-09-12T10:01:20.082Z,957.63
2022-09-12T10:02:23.778Z,957.66
2022-09-12T10:03:19.908Z,957.64
2022-09-12T10:04:19.891Z,957.67
2022-09-12T10:05:19.889Z,957.64
2022-09-12T10:06:19.866Z,957.64
2022-09-12T10:07:19.877Z,957.65
2022-09-12T10:08:20.157Z,957.65
2022-09-12T10:09:19.825Z,957.64
2022-09-12T10:10:19.820Z,957.66
2022-09-12T10:11:19.792Z,957.65
2022-09-12T10:12:19.781Z,957.68
2022-09-12T10:13:19.777Z,957.64
2022-09-12T10:14:19.939Z,957.68
2022-09-12T10:15:19.733Z,957.63
2022-09-12T10:16:19.770Z,957.68
2022-09-12T10:17:19.715Z,957.65
2022-09-12T10:18:19.690Z,957.67
2022-09-12T10:19:19.684Z,957.63
2022-09-12T10:20:22.006Z,957.59
2022-09-12T10:21:19.673Z,957.59
2022-09-12T10:22:19.653Z,957.54
2022-09-12T10:23:19.676Z,957.49
2022-09-12T10:24:19.611Z,957.50
2022-09-12T10:25:19.763Z,957.47
2022-09-12T10:26:19.714Z,957.53
2022-09-12T10:27:19.571Z,957.50
2022-09-12T10:28:19.571Z,957.50
2022-09-12T10:29:19.535Z,957.46
2022-09-12T10:30:19.531Z,957.48
2022-09-12T10:31:19.744Z,957.47
2022-09-12T10:32:19.609Z,957.46
2022-09-12T10:33:19.481Z,957.48
2022-09-12T10:34:19.476Z,957.50
2022-09-12T10:35:19.472Z,957.51
2022-09-12T10:36:19.446Z,957.45
2022-09-12T10:37:19.429Z,957.44
2022-09-12T10:38:19.631Z,957.45
2022-09-12T10:39:19.411Z,957.41
2022-09-12T10:40:19.415Z,957.41
2022-09-12T10:41:19.375Z,957.44
2022-09-12T10:42:23.301Z,957.47
2022-09-12T10:43:19.346Z,957.46
2022-09-12T10:44:19.452Z,957.51
2022-09-12T10:45:19.307Z,957.46
2022-09-12T10:46:19.402Z,957.48
2022-09-12T10:47:19.311Z,957.47
2022-09-12T10:48:19.275Z,957.49
2022-09-12T10:49:19.245Z,957.47
2022-09-12T10:50:22.797Z,957.45
2022-09-12T10:51:19.232Z,957.42
2022-09-12T10:52:19.214Z,957.44
2022-09-12T10:53:19.224Z,957.43
2022-09-12T10:54:19.209Z,957.39
2022-09-12T10:55:19.179Z,957.39
2022-09-12T10:56:19.419Z,957.42
2022-09-12T10:57:19.162Z,957.42
2022-09-12T10:58:19.143Z,957.43
2022-09-12T10:59:20.240Z,957.43
2022-09-12T11:00:19.113Z,957.41
2022-09-12T11:01:19.174Z,957.36
2022-09-12T11:02:19.325Z,957.33
2022-09-12T11:03:19.071Z,957.34
2022-09-12T11:04:19.053Z,957.36
2022-09-12T11:05:22.609Z,957.33
2022-09-12T11:06:19.038Z,957.36
2022-09-12T11:07:19.007Z,957.36
2022-09-12T11:08:19.280Z,957.29
2022-09-12T11:09:18.990Z,957.32
2022-09-12T11:10:18.984Z,957.30
2022-09-12T11:11:18.976Z,957.29
2022-09-12T11:12:18.953Z,957.28
2022-09-12T11:13:18.931Z,957.24
2022-09-12T11:14:19.032Z,957.23
2022-09-12T11:15:18.905Z,957.22
2022-09-12T11:16:18.932Z,957.20
2022-09-12T11:17:18.867Z,957.17
2022-09-12T11:18:19.026Z,957.21
2022-09-12T11:19:18.850Z,957.22
2022-09-12T11:20:19.158Z,957.23
2022-09-12T11:21:18.824Z,957.24
2022-09-12T11:22:18.824Z,957.23
2022-09-12T11:23:18.849Z,957.19
2022-09-12T11:24:18.794Z,957.14
2022-09-12T11:25:18.776Z,957.21
2022-09-12T11:26:19.015Z,957.17
2022-09-12T11:27:18.735Z,957.18
2022-09-12T11:28:18.787Z,957.14
2022-09-12T11:29:18.793Z,957.13
2022-09-12T11:30:18.726Z,957.17
2022-09-12T11:31:18.794Z,957.16
2022-09-12T11:32:18.883Z,957.14
2022-09-12T11:33:18.815Z,957.14
2022-09-12T11:34:18.646Z,957.13
2022-09-12T11:35:18.640Z,957.17
2022-09-12T11:36:18.623Z,957.20
2022-09-12T11:37:18.606Z,957.16
2022-09-12T11:38:18.640Z,957.20
2022-09-12T11:39:18.670Z,957.15
2022-09-12T11:40:18.657Z,957.16
2022-09-12T11:41:18.562Z,957.16
2022-09-12T11:42:18.543Z,957.12
2022-09-12T11:43:18.553Z,957.16
2022-09-12T11:44:18.561Z,957.17
2022-09-12T11:45:18.571Z,957.15
2022-09-12T11:46:18.590Z,957.16
2022-09-12T11:47:18.467Z,957.13
2022-09-12T11:48:18.680Z,957.13
2022-09-12T11:49:18.437Z,957.09
2022-09-12T11:50:18.465Z,957.07
2022-09-12T11:51:18.488Z,957.07
2022-09-12T11:52:18.394Z,957.02
2022-09-12T11:53:18.375Z,957.03
2022-09-12T11:54:18.373Z,957.03
2022-09-12T11:55:18.360Z,957.03
2022-09-12T11:56:18.521Z,957.04
2022-09-12T11:57:18.632Z,957.00
2022-09-12T11:58:18.325Z,957.05
2022-09-12T11:59:18.341Z,956.97
2022-09-12T12:00:18.398Z,956.99
2022-09-12T12:01:18.330Z,956.98
2022-09-12T12:02:18.322Z,956.98
2022-09-12T12:03:18.946Z,957.00
2022-09-12T12:04:18.323Z,956.98
2022-09-12T12:05:18.220Z,956.98
2022-09-12T12:06:18.335Z,956.95
2022-09-12T12:07:18.199Z,957.01
2022-09-12T12:08:18.232Z,956.98
2022-09-12T12:09:18.368Z,956.95
2022-09-12T12:10:18.158Z,956.99
2022-09-12T12:11:18.304Z,957.00
2022-09-12T12:12:18.302Z,956.96
2022-09-12T12:13:18.117Z,957.03
2022-09-12T12:14:18.129Z,957.05
2022-09-12T12:15:18.560Z,957.05
2022-09-12T12:16:18.146Z,957.03
2022-09-12T12:17:18.048Z,957.03
2022-09-12T12:18:18.024Z,957.02
2022-09-12T12:19:18.014Z,957.02
2022-09-12T12:20:18.038Z,957.02
2022-09-12T12:21:18.138Z,956.94
2022-09-12T12:22:17.978Z,956.97
2022-09-12T12:23:17.947Z,956.94
2022-09-12T12:24:17.947Z,956.95
2022-09-12T12:25:21.413Z,956.94
2022-09-12T12:26:17.948Z,956.94
2022-09-12T12:27:17.976Z,956.95
2022-09-12T12:28:17.886Z,956.97